Time;durP1;ratioP1;P1;durP2;ratioP2;P2;SDS_P1;SDS_P2;PMS_P1;PMS_P2;Temp;Humidity;BMP_temperature;BMP_pressure;BME280_temperature;BME280_humidity;BME280_pressure;Samples;Min_cycle;Max_cycle;Signal;HPM_P1;HPM_P2
2022/02/23 00:00:28;;;;;;;17.37;3.23;;;8.10;99.90;;;;;;5042131;28;38835;-77
2022/02/23 00:02:54;;;;;;;20.90;3.50;;;8.10;99.90;;;;;;5035364;28;38891;-77
2022/02/23 00:05:20;;;;;;;27.97;5.77;;;8.10;99.90;;;;;;5039427;28;37091;-77
2022/02/23 00:07:46;;;;;;;24.10;3.30;;;8.00;99.90;;;;;;5041060;28;39572;-77
2022/02/23 00:10:12;;;;;;;26.87;3.53;;;8.00;99.90;;;;;;5042731;28;37979;-77
2022/02/23 00:12:39;;;;;;;20.80;3.20;;;7.90;99.90;;;;;;5046018;28;37446;-77
2022/02/23 00:15:06;;;;;;;17.57;3.40;;;7.90;99.90;;;;;;5051731;28;37558;-77
2022/02/23 00:17:32;;;;;;;18.07;3.43;;;7.90;99.90;;;;;;5046759;28;39457;-77
2022/02/23 00:19:58;;;;;;;22.43;3.23;;;7.80;99.90;;;;;;5035409;28;38302;-77
2022/02/23 00:22:24;;;;;;;21.97;3.17;;;7.80;99.90;;;;;;5049043;28;38316;-77
2022/02/23 00:24:50;;;;;;;21.07;3.77;;;7.90;99.90;;;;;;5039892;28;35930;-77
2022/02/23 00:27:17;;;;;;;19.13;2.90;;;8.00;99.90;;;;;;5045125;28;38395;-77
2022/02/23 00:29:43;;;;;;;22.83;3.80;;;7.90;99.90;;;;;;5040397;28;37520;-78
2022/02/23 00:32:09;;;;;;;22.63;3.73;;;7.90;99.90;;;;;;5038941;28;38182;-78
2022/02/23 00:34:35;;;;;;;19.80;3.70;;;8.00;99.90;;;;;;5036891;28;36174;-77
2022/02/23 00:37:01;;;;;;;13.20;2.47;;;7.90;99.90;;;;;;5029375;28;38826;-78
2022/02/23 00:39:27;;;;;;;17.40;3.40;;;7.90;99.90;;;;;;5032414;28;37248;-77
2022/02/23 00:41:53;;;;;;;19.47;3.40;;;7.90;99.90;;;;;;5045279;28;36991;-78
2022/02/23 00:44:19;;;;;;;20.87;3.43;;;7.90;99.90;;;;;;5034106;28;37224;-78
2022/02/23 00:46:45;;;;;;;15.37;2.80;;;7.90;99.90;;;;;;5036235;28;38261;-77
2022/02/23 00:49:12;;;;;;;20.43;3.97;;;8.00;99.90;;;;;;5040198;28;37726;-78
2022/02/23 00:51:38;;;;;;;19.33;4.27;;;8.00;99.90;;;;;;5049099;28;37935;-78
2022/02/23 00:54:05;;;;;;;21.00;2.97;;;8.10;99.90;;;;;;5033545;28;35935;-77
2022/02/23 00:56:31;;;;;;;15.87;3.70;;;8.20;99.90;;;;;;5039351;28;39015;-77
2022/02/23 00:58:57;;;;;;;24.63;3.07;;;8.20;99.90;;;;;;5033337;28;38744;-78
2022/02/23 01:01:23;;;;;;;17.97;2.80;;;8.10;99.90;;;;;;5039743;28;37205;-77
2022/02/23 01:03:49;;;;;;;16.90;3.20;;;8.10;99.90;;;;;;5034684;28;38154;-77
2022/02/23 01:06:15;;;;;;;16.53;3.50;;;8.10;99.90;;;;;;5040678;28;39196;-77
2022/02/23 01:08:42;;;;;;;18.63;3.40;;;8.00;99.90;;;;;;5044122;28;39081;-77
2022/02/23 01:11:08;;;;;;;15.90;3.20;;;7.90;99.90;;;;;;5031042;28;36911;-78
2022/02/23 01:13:34;;;;;;;16.70;3.40;;;8.00;99.90;;;;;;5029734;28;36912;-77
2022/02/23 01:16:00;;;;;;;17.00;2.53;;;7.90;99.90;;;;;;5035834;28;38109;-77
2022/02/23 01:18:26;;;;;;;15.13;3.63;;;7.80;99.90;;;;;;5036730;28;41744;-77
2022/02/23 01:20:52;;;;;;;16.60;3.23;;;7.80;99.90;;;;;;5038092;28;37227;-77
2022/02/23 01:23:18;;;;;;;22.30;2.90;;;7.70;99.90;;;;;;5030143;28;37518;-77
2022/02/23 01:25:45;;;;;;;20.17;3.03;;;7.70;99.90;;;;;;5033223;28;38006;-77
2022/02/23 01:28:12;;;;;;;14.00;2.63;;;7.70;99.90;;;;;;5039027;28;38760;-78
2022/02/23 01:30:38;;;;;;;21.80;2.67;;;7.80;99.90;;;;;;5042801;28;37219;-77
2022/02/23 01:33:04;;;;;;;16.43;2.70;;;7.70;99.90;;;;;;5035117;28;35977;-77
2022/02/23 01:35:31;;;;;;;24.50;3.80;;;7.60;99.90;;;;;;5042567;28;38385;-77
2022/02/23 01:37:58;;;;;;;21.20;2.97;;;7.40;99.90;;;;;;5037225;28;37726;-77
2022/02/23 01:40:24;;;;;;;27.47;3.87;;;7.40;99.90;;;;;;5035495;28;37919;-77
2022/02/23 01:42:52;;;;;;;21.20;4.07;;;7.30;99.90;;;;;;5039368;28;37377;-77
2022/02/23 01:45:18;;;;;;;20.27;4.50;;;7.20;99.90;;;;;;5038547;28;40429;-77
2022/02/23 01:47:45;;;;;;;20.67;4.13;;;7.10;99.90;;;;;;5039914;28;37237;-77
2022/02/23 01:50:13;;;;;;;29.87;3.53;;;7.00;99.90;;;;;;5042034;28;39179;-77
2022/02/23 01:52:39;;;;;;;27.63;3.87;;;7.00;99.90;;;;;;5047515;28;36165;-77
2022/02/23 01:55:06;;;;;;;18.83;3.23;;;7.00;99.90;;;;;;5035044;28;36310;-78
2022/02/23 01:57:32;;;;;;;21.47;3.40;;;6.90;99.90;;;;;;5035112;28;37754;-77
2022/02/23 01:59:58;;;;;;;24.50;4.17;;;6.80;99.90;;;;;;5035294;28;35248;-78
2022/02/23 02:02:26;;;;;;;24.20;4.00;;;6.80;99.90;;;;;;5037965;28;38130;-77
2022/02/23 02:04:53;;;;;;;18.13;3.40;;;6.80;99.90;;;;;;5041672;28;39702;-77
2022/02/23 02:07:22;;;;;;;36.23;5.43;;;6.70;99.90;;;;;;5045177;28;37878;-77
2022/02/23 02:09:48;;;;;;;19.13;3.67;;;6.70;99.90;;;;;;5037967;28;38078;-78
2022/02/23 02:12:14;;;;;;;19.20;3.90;;;6.70;99.90;;;;;;5038774;28;37985;-77
2022/02/23 02:14:41;;;;;;;16.23;3.17;;;6.70;99.90;;;;;;5038522;28;39271;-77
2022/02/23 02:17:07;;;;;;;15.37;3.30;;;6.70;99.90;;;;;;5029236;28;38275;-77
2022/02/23 02:19:33;;;;;;;15.87;3.67;;;6.60;99.90;;;;;;5035715;28;38858;-77
2022/02/23 02:22:03;;;;;;;18.77;3.10;;;6.60;99.90;;;;;;5030934;28;36045;-77
2022/02/23 02:24:32;;;;;;;22.00;3.20;;;6.50;99.90;;;;;;5033390;28;48418;-77
2022/02/23 02:27:00;;;;;;;13.07;2.87;;;6.60;99.90;;;;;;5039162;28;37831;-77
2022/02/23 02:29:27;;;;;;;27.30;4.27;;;6.50;99.90;;;;;;5040636;28;36946;-77
2022/02/23 02:31:54;;;;;;;29.83;4.13;;;6.50;99.90;;;;;;5036973;28;35820;-77
2022/02/23 02:34:21;;;;;;;26.10;3.33;;;6.50;99.90;;;;;;5037124;28;37951;-77
2022/02/23 02:36:50;;;;;;;23.73;3.40;;;6.40;99.90;;;;;;5031616;28;37410;-77
2022/02/23 02:39:18;;;;;;;17.87;3.47;;;6.40;99.90;;;;;;5037687;28;36252;-77
2022/02/23 02:41:45;;;;;;;28.90;3.93;;;6.40;99.90;;;;;;5041307;28;36509;-78
2022/02/23 02:44:12;;;;;;;28.40;3.93;;;6.40;99.90;;;;;;5031282;28;38471;-78
2022/02/23 02:46:38;;;;;;;21.07;3.30;;;6.40;99.90;;;;;;5035672;28;38778;-77
2022/02/23 02:49:05;;;;;;;22.53;3.37;;;6.40;99.90;;;;;;5032434;28;38159;-77
2022/02/23 02:51:31;;;;;;;27.00;2.90;;;6.40;99.90;;;;;;5035187;28;37687;-77
2022/02/23 02:53:57;;;;;;;28.13;4.50;;;6.40;99.90;;;;;;5029058;28;39510;-77
2022/02/23 02:56:24;;;;;;;23.47;3.83;;;6.40;99.90;;;;;;5039753;28;37296;-77
2022/02/23 02:58:52;;;;;;;21.47;3.00;;;6.40;99.90;;;;;;5033057;28;37514;-77
2022/02/23 03:01:20;;;;;;;22.47;3.03;;;6.30;99.90;;;;;;5033189;28;39863;-78
2022/02/23 03:03:47;;;;;;;22.67;3.43;;;6.30;99.90;;;;;;5030303;28;38797;-77
2022/02/23 03:06:13;;;;;;;26.37;4.27;;;6.30;99.90;;;;;;5036977;28;38334;-77
2022/02/23 03:08:40;;;;;;;22.03;3.90;;;6.20;99.90;;;;;;5045883;28;38015;-77
2022/02/23 03:11:06;;;;;;;21.70;3.30;;;6.10;99.90;;;;;;5041394;28;36531;-78
2022/02/23 03:13:32;;;;;;;21.60;3.73;;;6.10;99.90;;;;;;5036188;28;39090;-77
2022/02/23 03:15:58;;;;;;;27.67;3.60;;;6.10;99.90;;;;;;5036117;28;38391;-77
2022/02/23 03:18:24;;;;;;;22.27;3.70;;;6.20;99.90;;;;;;5040686;28;39736;-77
2022/02/23 03:20:50;;;;;;;24.37;3.23;;;6.20;99.90;;;;;;5024283;28;36873;-77
2022/02/23 03:23:17;;;;;;;22.07;3.00;;;6.10;99.90;;;;;;5040127;28;38029;-77
2022/02/23 03:25:44;;;;;;;23.70;3.60;;;6.10;99.90;;;;;;5032699;28;38432;-77
2022/02/23 03:28:10;;;;;;;21.60;4.30;;;6.10;99.90;;;;;;5029906;28;38550;-77
2022/02/23 03:30:39;;;;;;;21.03;3.70;;;6.10;99.90;;;;;;5031932;28;37877;-77
2022/02/23 03:33:06;;;;;;;21.17;3.97;;;6.10;99.90;;;;;;5029575;28;39172;-78
2022/02/23 03:35:33;;;;;;;23.07;3.67;;;6.10;99.90;;;;;;5035675;28;38168;-77
2022/02/23 03:37:59;;;;;;;21.83;3.23;;;6.10;99.90;;;;;;5033048;28;38084;-77
2022/02/23 03:40:26;;;;;;;22.77;3.07;;;6.00;99.90;;;;;;5041117;28;37028;-77
2022/02/23 03:42:52;;;;;;;26.60;4.23;;;6.00;99.90;;;;;;5039957;28;39242;-77
2022/02/23 03:45:19;;;;;;;22.87;3.30;;;6.00;99.90;;;;;;5034224;28;40017;-77
2022/02/23 03:47:46;;;;;;;24.37;4.17;;;5.90;99.90;;;;;;5030159;28;37739;-77
2022/02/23 03:50:13;;;;;;;22.40;3.13;;;5.80;99.90;;;;;;5046410;28;36236;-78
2022/02/23 03:52:40;;;;;;;22.67;3.87;;;5.70;99.90;;;;;;5050027;28;38473;-77
2022/02/23 03:55:08;;;;;;;18.80;3.47;;;5.80;99.90;;;;;;5022350;28;40145;-77
2022/02/23 03:57:34;;;;;;;15.77;2.87;;;5.70;99.90;;;;;;5022764;28;38448;-77
2022/02/23 04:00:01;;;;;;;24.73;3.57;;;5.60;99.90;;;;;;5035673;28;36236;-78
2022/02/23 04:02:27;;;;;;;26.13;5.07;;;5.50;99.90;;;;;;5026583;28;38686;-77
2022/02/23 04:04:54;;;;;;;24.03;3.20;;;5.50;99.90;;;;;;5029410;28;38515;-77
2022/02/23 04:07:20;;;;;;;18.93;3.50;;;5.40;99.90;;;;;;5042036;28;37326;-77
2022/02/23 04:09:48;;;;;;;24.63;3.50;;;5.30;99.90;;;;;;5027162;28;36588;-77
2022/02/23 04:12:17;;;;;;;16.50;2.80;;;5.30;99.90;;;;;;5037280;28;39525;-78
2022/02/23 04:14:44;;;;;;;27.70;4.60;;;5.20;99.90;;;;;;5040680;28;39356;-77
2022/02/23 04:17:10;;;;;;;17.33;3.23;;;5.20;99.90;;;;;;5029782;28;36899;-77
2022/02/23 04:19:36;;;;;;;19.83;3.00;;;5.20;99.90;;;;;;5039198;28;37185;-77
2022/02/23 04:22:04;;;;;;;21.97;3.73;;;5.20;99.90;;;;;;5025110;28;38363;-78
2022/02/23 04:24:30;;;;;;;21.73;3.10;;;5.10;99.90;;;;;;5026791;28;37793;-77
2022/02/23 04:26:56;;;;;;;23.40;3.37;;;5.00;99.90;;;;;;5031179;28;38239;-77
2022/02/23 04:29:23;;;;;;;29.70;4.03;;;5.10;99.90;;;;;;5028754;28;36204;-77
2022/02/23 04:31:49;;;;;;;23.70;2.80;;;5.00;99.90;;;;;;5031052;28;38091;-77
2022/02/23 04:34:15;;;;;;;27.83;3.30;;;4.80;99.90;;;;;;5029787;28;38750;-77
2022/02/23 04:36:41;;;;;;;22.23;3.27;;;4.80;99.90;;;;;;5031673;28;37915;-77
2022/02/23 04:39:08;;;;;;;24.77;2.90;;;4.80;99.90;;;;;;5038957;28;36293;-77
2022/02/23 04:41:35;;;;;;;20.83;4.13;;;4.70;99.90;;;;;;5033550;28;38941;-77
2022/02/23 04:44:01;;;;;;;24.07;3.30;;;4.60;99.90;;;;;;5037828;28;39130;-77
2022/02/23 04:46:27;;;;;;;19.30;3.10;;;4.60;99.90;;;;;;5030973;28;46957;-77
2022/02/23 04:48:53;;;;;;;15.27;2.67;;;4.50;99.90;;;;;;5034845;28;37114;-77
2022/02/23 04:51:19;;;;;;;19.37;3.40;;;4.40;99.90;;;;;;5033303;28;38594;-77
2022/02/23 04:53:46;;;;;;;23.97;3.53;;;4.30;99.90;;;;;;5028103;28;39144;-77
2022/02/23 04:56:13;;;;;;;25.47;4.07;;;4.20;99.90;;;;;;5028287;28;38989;-77
2022/02/23 04:58:39;;;;;;;22.77;3.33;;;4.10;99.90;;;;;;5040263;28;35960;-77
2022/02/23 05:01:05;;;;;;;26.00;3.87;;;4.20;99.90;;;;;;5032168;28;39614;-77
2022/02/23 05:03:32;;;;;;;17.67;3.20;;;4.20;99.90;;;;;;5033634;28;38431;-77
2022/02/23 05:06:01;;;;;;;24.70;3.00;;;4.20;99.90;;;;;;5036037;28;37939;-77
2022/02/23 05:08:28;;;;;;;31.73;3.83;;;4.20;99.90;;;;;;5033602;28;49005;-77
2022/02/23 05:10:57;;;;;;;15.43;3.43;;;4.20;99.90;;;;;;5034503;28;39254;-77
2022/02/23 05:13:25;;;;;;;25.73;3.87;;;4.20;99.90;;;;;;5032247;28;37840;-77
2022/02/23 05:15:56;;;;;;;23.53;3.80;;;4.10;99.90;;;;;;5042422;28;38027;-77
2022/02/23 05:18:27;;;;;;;25.20;3.30;;;4.00;99.90;;;;;;5043222;28;37549;-76
2022/02/23 05:20:54;;;;;;;19.53;2.90;;;3.90;99.90;;;;;;5032996;28;37526;-76
2022/02/23 05:23:20;;;;;;;28.10;4.03;;;3.80;99.90;;;;;;5028429;28;38069;-76
2022/02/23 05:25:46;;;;;;;28.67;4.00;;;3.90;99.90;;;;;;5036670;28;37947;-76
2022/02/23 05:28:12;;;;;;;27.37;3.77;;;3.90;99.90;;;;;;5041191;28;36294;-76
2022/02/23 05:30:38;;;;;;;20.23;4.50;;;3.90;99.90;;;;;;5038511;28;38875;-76
2022/02/23 05:33:05;;;;;;;27.07;4.33;;;3.90;99.90;;;;;;5034143;28;37371;-77
2022/02/23 05:35:31;;;;;;;19.40;3.67;;;3.80;99.90;;;;;;5036181;28;37234;-76
2022/02/23 05:37:58;;;;;;;24.97;4.80;;;3.80;99.90;;;;;;5034453;28;37156;-76
2022/02/23 05:40:25;;;;;;;22.07;3.77;;;3.90;99.90;;;;;;5032318;28;40190;-76
2022/02/23 05:42:51;;;;;;;26.40;3.93;;;3.90;99.90;;;;;;5040796;28;38907;-76
2022/02/23 05:45:17;;;;;;;20.73;3.70;;;4.00;99.90;;;;;;5031034;28;38289;-76
2022/02/23 05:47:43;;;;;;;27.97;4.47;;;4.10;99.90;;;;;;5038915;28;36198;-76
2022/02/23 05:50:09;;;;;;;31.17;4.43;;;4.30;99.90;;;;;;5047334;28;38074;-76
2022/02/23 05:52:35;;;;;;;25.93;4.03;;;4.30;99.90;;;;;;5054655;28;37731;-76
2022/02/23 05:55:04;;;;;;;27.17;4.30;;;4.40;99.90;;;;;;5043645;28;37667;-77
2022/02/23 05:57:31;;;;;;;26.37;3.60;;;4.40;99.90;;;;;;5032432;28;37681;-76
2022/02/23 05:59:57;;;;;;;29.43;5.10;;;4.40;99.90;;;;;;5032798;28;39584;-76
2022/02/23 06:02:23;;;;;;;20.27;4.03;;;4.30;99.90;;;;;;5039767;28;38559;-75
2022/02/23 06:04:49;;;;;;;42.00;5.60;;;4.20;99.90;;;;;;5039106;28;38160;-76
2022/02/23 06:07:15;;;;;;;43.93;6.87;;;4.10;99.90;;;;;;5031597;28;37717;-76
2022/02/23 06:09:42;;;;;;;25.70;4.53;;;4.00;99.90;;;;;;5042472;28;38561;-76
2022/02/23 06:12:09;;;;;;;23.77;4.03;;;4.00;99.90;;;;;;5037688;28;39301;-76
2022/02/23 06:14:35;;;;;;;22.90;3.77;;;3.90;99.90;;;;;;5039155;28;37601;-76
2022/02/23 06:17:01;;;;;;;27.37;3.90;;;3.70;99.90;;;;;;5035174;28;37861;-77
2022/02/23 06:19:27;;;;;;;20.53;3.50;;;3.70;99.90;;;;;;5039459;28;47268;-78
2022/02/23 06:21:53;;;;;;;22.03;3.57;;;3.70;99.90;;;;;;5033282;28;37191;-77
2022/02/23 06:24:20;;;;;;;19.90;3.40;;;3.60;99.90;;;;;;5043268;28;38144;-77
2022/02/23 06:26:46;;;;;;;20.20;3.50;;;3.50;99.90;;;;;;5039279;28;35997;-77
2022/02/23 06:29:13;;;;;;;24.73;3.83;;;3.60;99.90;;;;;;5036844;28;38881;-77
2022/02/23 06:31:39;;;;;;;26.17;3.77;;;3.60;99.90;;;;;;5039271;28;38313;-75
2022/02/23 06:34:05;;;;;;;20.87;3.37;;;3.50;99.90;;;;;;5045398;28;38554;-76
2022/02/23 06:36:31;;;;;;;21.00;3.50;;;3.40;99.90;;;;;;5036520;28;35684;-76
2022/02/23 06:38:58;;;;;;;29.13;4.33;;;3.30;99.90;;;;;;5041748;28;39608;-77
2022/02/23 06:41:26;;;;;;;38.07;5.13;;;3.70;99.90;;;;;;5049780;28;37528;-77
2022/02/23 06:43:53;;;;;;;29.27;4.63;;;3.80;99.90;;;;;;5046618;28;38723;-78
2022/02/23 06:46:20;;;;;;;27.90;4.53;;;4.00;99.90;;;;;;5038369;28;35986;-78
2022/02/23 06:48:48;;;;;;;22.83;3.47;;;4.10;99.90;;;;;;5043537;28;37548;-77
2022/02/23 06:51:18;;;;;;;26.60;4.83;;;4.10;99.90;;;;;;5039109;28;38558;-77
2022/02/23 06:53:46;;;;;;;16.60;3.77;;;4.10;99.90;;;;;;5028883;28;38404;-76
2022/02/23 06:56:13;;;;;;;25.07;3.77;;;4.10;99.90;;;;;;5040179;28;37687;-78
2022/02/23 06:58:46;;;;;;;26.93;4.37;;;4.10;99.90;;;;;;5036932;28;38829;-80
2022/02/23 07:01:16;;;;;;;24.73;4.27;;;4.10;99.90;;;;;;5055356;23;38118;-77
2022/02/23 07:03:44;;;;;;;21.83;3.47;;;4.00;99.90;;;;;;5060665;28;38837;-77
2022/02/23 07:06:11;;;;;;;20.27;4.73;;;3.90;99.90;;;;;;5061084;28;38328;-77
2022/02/23 07:08:37;;;;;;;20.23;3.30;;;3.90;99.90;;;;;;5068228;28;38553;-77
2022/02/23 07:11:04;;;;;;;22.67;3.30;;;4.00;99.90;;;;;;5062540;28;39180;-77
2022/02/23 07:13:30;;;;;;;21.23;3.97;;;4.00;99.90;;;;;;5067547;28;38051;-77
2022/02/23 07:15:56;;;;;;;19.27;3.20;;;3.90;99.90;;;;;;5065804;28;37261;-77
2022/02/23 07:18:22;;;;;;;19.40;3.13;;;3.90;99.90;;;;;;5060254;28;38813;-76
2022/02/23 07:20:48;;;;;;;30.17;3.80;;;3.80;99.90;;;;;;5049037;28;40215;-77
2022/02/23 07:23:14;;;;;;;19.90;3.20;;;3.80;99.90;;;;;;5065865;28;37962;-76
2022/02/23 07:25:40;;;;;;;23.63;3.90;;;3.70;99.90;;;;;;5060755;28;37722;-77
2022/02/23 07:28:06;;;;;;;16.83;3.90;;;3.70;99.90;;;;;;5057303;28;37564;-76
2022/02/23 07:30:37;;;;;;;30.80;6.10;;;3.70;99.90;;;;;;5062317;28;37379;-76
2022/02/23 07:33:04;;;;;;;24.67;4.27;;;3.70;99.90;;;;;;5057449;28;39082;-76
2022/02/23 07:35:30;;;;;;;18.13;3.47;;;3.60;99.90;;;;;;5059743;28;37400;-77
2022/02/23 07:38:04;;;;;;;19.03;4.30;;;3.60;99.90;;;;;;5053027;28;38723;-77
2022/02/23 07:40:30;;;;;;;16.07;3.73;;;3.50;99.90;;;;;;5056451;28;47091;-77
2022/02/23 07:42:57;;;;;;;26.13;3.77;;;3.70;99.90;;;;;;5061126;28;38752;-76
2022/02/23 07:45:24;;;;;;;31.00;4.43;;;3.90;99.90;;;;;;5062544;28;37972;-77
2022/02/23 07:47:50;;;;;;;21.77;3.37;;;4.10;99.90;;;;;;5063572;28;38593;-77
2022/02/23 07:50:18;;;;;;;27.50;4.30;;;4.20;99.90;;;;;;5061974;28;39541;-77
2022/02/23 07:52:47;;;;;;;25.50;5.27;;;4.20;99.90;;;;;;5061768;28;38822;-76
2022/02/23 07:55:13;;;;;;;26.80;5.73;;;4.40;99.90;;;;;;5053742;28;37756;-77
2022/02/23 07:57:41;;;;;;;25.47;5.47;;;4.40;99.90;;;;;;5058313;28;38497;-77
2022/02/23 08:00:09;;;;;;;20.80;4.13;;;4.40;99.90;;;;;;5059664;28;38329;-76
2022/02/23 08:02:36;;;;;;;24.93;6.33;;;4.40;99.90;;;;;;5063161;28;38444;-77
2022/02/23 08:05:03;;;;;;;30.50;5.43;;;4.50;99.90;;;;;;5058495;28;39581;-77
2022/02/23 08:07:29;;;;;;;24.07;4.57;;;4.70;99.90;;;;;;5059001;28;46814;-76
2022/02/23 08:09:55;;;;;;;26.37;5.07;;;4.70;99.90;;;;;;5056846;28;39072;-77
2022/02/23 08:12:22;;;;;;;31.40;5.50;;;4.70;99.90;;;;;;5059862;28;39629;-77
2022/02/23 08:14:48;;;;;;;25.93;5.53;;;4.80;99.90;;;;;;5060378;28;39305;-77
2022/02/23 08:20:10;;;;;;;27.83;4.80;;;5.20;99.90;;;;;;5022876;28;38562;-77
2022/02/23 08:22:36;;;;;;;34.10;5.80;;;5.30;99.90;;;;;;5064123;28;38613;-77
2022/02/23 08:25:03;;;;;;;37.53;7.27;;;5.40;99.90;;;;;;5061488;28;37557;-77
2022/02/23 08:27:30;;;;;;;34.37;4.67;;;5.50;99.90;;;;;;5060644;28;38783;-77
2022/02/23 08:29:56;;;;;;;32.47;5.33;;;5.50;99.90;;;;;;5066692;28;38376;-76
2022/02/23 08:32:23;;;;;;;31.43;5.30;;;5.60;99.90;;;;;;5061055;28;38576;-77
2022/02/23 08:34:51;;;;;;;25.77;5.33;;;5.60;99.90;;;;;;5060159;28;37466;-77
2022/02/23 08:37:18;;;;;;;33.57;6.70;;;5.70;99.90;;;;;;5059784;28;39900;-77
2022/02/23 08:39:46;;;;;;;35.73;6.90;;;5.70;99.90;;;;;;5058711;28;39420;-77
2022/02/23 08:42:14;;;;;;;38.50;6.20;;;5.80;99.90;;;;;;5056869;28;38767;-77
2022/02/23 08:44:41;;;;;;;30.43;5.80;;;5.80;99.90;;;;;;5060691;28;38680;-77
2022/02/23 08:47:08;;;;;;;32.13;6.57;;;5.80;99.90;;;;;;5056439;28;39648;-76
2022/02/23 08:49:34;;;;;;;30.87;7.43;;;5.90;99.90;;;;;;5057986;28;40019;-77
2022/02/23 08:52:00;;;;;;;40.83;8.47;;;5.90;99.90;;;;;;5068652;28;38443;-77
2022/02/23 08:54:26;;;;;;;52.30;12.47;;;6.00;99.90;;;;;;5060000;28;47755;-77
2022/02/23 08:56:53;;;;;;;42.13;11.90;;;6.10;99.90;;;;;;5062459;28;40087;-76
2022/02/23 08:59:19;;;;;;;35.33;12.60;;;6.20;99.90;;;;;;5060722;28;39171;-77
2022/02/23 09:01:45;;;;;;;44.73;13.07;;;6.20;99.90;;;;;;5065145;28;38144;-77
2022/02/23 09:04:11;;;;;;;41.13;13.87;;;6.30;99.90;;;;;;5061136;28;38577;-77
2022/02/23 09:06:40;;;;;;;44.33;15.20;;;6.30;99.90;;;;;;5057157;28;39329;-77
2022/02/23 09:09:10;;;;;;;36.53;15.60;;;6.40;99.90;;;;;;5058642;28;38970;-78
2022/02/23 09:11:38;;;;;;;40.43;15.63;;;6.50;99.90;;;;;;5066393;28;39043;-77
2022/02/23 09:14:04;;;;;;;42.40;16.83;;;6.60;99.90;;;;;;5057736;28;38356;-77
2022/02/23 09:16:31;;;;;;;41.73;15.70;;;6.70;99.90;;;;;;5063640;28;40559;-77
2022/02/23 09:18:58;;;;;;;42.63;15.23;;;6.70;99.90;;;;;;5064383;28;38763;-77
2022/02/23 09:21:24;;;;;;;35.70;15.43;;;6.70;99.90;;;;;;5059641;28;38997;-77
2022/02/23 09:23:50;;;;;;;34.87;14.47;;;6.70;99.90;;;;;;5064769;28;37919;-77
2022/02/23 09:26:19;;;;;;;30.03;13.83;;;6.80;99.90;;;;;;5059591;28;39524;-77
2022/02/23 09:28:46;;;;;;;37.63;14.60;;;7.00;99.90;;;;;;5061720;28;39436;-77
2022/02/23 09:31:13;;;;;;;38.90;12.93;;;7.00;99.90;;;;;;5061651;28;38732;-76
2022/02/23 09:33:41;;;;;;;34.83;13.47;;;7.10;99.90;;;;;;5060307;28;37286;-77
2022/02/23 09:36:07;;;;;;;30.90;12.30;;;7.20;99.90;;;;;;5057205;28;38668;-77
2022/02/23 09:38:33;;;;;;;29.27;10.87;;;7.30;99.90;;;;;;5056191;28;38296;-79
2022/02/23 09:41:04;;;;;;;34.47;11.17;;;7.40;99.90;;;;;;5065072;28;39664;-79
2022/02/23 09:43:31;;;;;;;33.27;10.03;;;7.50;99.90;;;;;;5055525;28;49295;-79
2022/02/23 09:45:58;;;;;;;31.90;9.73;;;7.50;99.90;;;;;;5057090;28;37715;-80
2022/02/23 09:48:28;;;;;;;34.80;10.77;;;7.60;99.90;;;;;;5058242;28;38453;-79
2022/02/23 09:50:55;;;;;;;32.90;10.00;;;7.80;99.90;;;;;;5079638;28;38377;-79
2022/02/23 09:53:22;;;;;;;32.00;8.83;;;7.90;99.90;;;;;;5059636;28;38970;-77
2022/02/23 09:55:52;;;;;;;24.73;8.00;;;8.00;99.90;;;;;;5062152;28;40484;-77
2022/02/23 09:58:19;;;;;;;29.60;8.37;;;8.10;99.90;;;;;;5061768;28;38296;-76
2022/02/23 10:00:45;;;;;;;33.20;9.23;;;8.10;99.90;;;;;;5062358;28;38698;-77
2022/02/23 10:03:12;;;;;;;26.50;7.77;;;8.10;99.90;;;;;;5063031;28;38031;-80
2022/02/23 10:05:43;;;;;;;26.20;6.83;;;8.20;99.90;;;;;;5062361;28;39805;-78
2022/02/23 10:08:11;;;;;;;28.60;7.63;;;8.20;99.90;;;;;;5063466;28;39400;-79
2022/02/23 10:10:39;;;;;;;27.17;7.07;;;8.40;99.90;;;;;;5061807;28;38903;-79
2022/02/23 10:13:08;;;;;;;27.87;7.53;;;8.50;99.90;;;;;;5061868;28;36430;-78
2022/02/23 10:15:42;;;;;;;25.77;7.53;;;8.60;99.90;;;;;;5058818;28;38994;-79
2022/02/23 10:18:11;;;;;;;21.47;5.93;;;8.70;99.90;;;;;;5066740;28;38548;-77
2022/02/23 10:20:39;;;;;;;25.60;6.37;;;8.60;99.90;;;;;;5060692;28;39484;-77
2022/02/23 10:23:20;;;;;;;23.27;4.97;;;8.60;99.90;;;;;;5065230;28;36908;-77
2022/02/23 10:25:52;;;;;;;23.87;6.23;;;8.70;99.90;;;;;;5057199;28;40790;-77
2022/02/23 10:28:22;;;;;;;24.30;5.63;;;8.80;99.90;;;;;;5057133;28;37547;-79
2022/02/23 10:30:54;;;;;;;19.37;5.47;;;8.80;99.90;;;;;;5061235;28;37097;-79
2022/02/23 10:33:26;;;;;;;19.05;4.68;;;8.80;99.90;;;;;;5060823;28;38104;-79
2022/02/23 10:36:00;;;;;;;23.35;5.05;;;8.90;99.90;;;;;;5061400;28;39485;-79
2022/02/23 10:38:31;;;;;;;19.80;4.93;;;9.00;99.90;;;;;;5025948;28;39645;-79
2022/02/23 10:41:00;;;;;;;21.17;4.70;;;9.20;99.90;;;;;;5060360;28;37946;-79
2022/02/23 10:43:43;;;;;;;31.03;6.47;;;9.40;99.90;;;;;;5062184;28;39848;-79
2022/02/23 10:46:12;;;;;;;26.03;5.00;;;9.40;99.90;;;;;;5061292;28;38750;-80
2022/02/23 10:48:41;;;;;;;18.83;5.60;;;9.30;99.90;;;;;;5062889;28;38329;-79
2022/02/23 10:51:10;;;;;;;15.03;3.93;;;9.40;99.90;;;;;;5058527;28;39625;-78
2022/02/23 10:53:37;;;;;;;18.53;4.40;;;9.60;99.90;;;;;;5066028;28;36059;-79
2022/02/23 10:56:27;;;;;;;17.30;4.23;;;9.60;99.90;;;;;;5054383;28;39799;-78
2022/02/23 10:59:11;;;;;;;16.73;4.70;;;9.60;99.90;;;;;;5061012;28;38779;-78
2022/02/23 11:01:40;;;;;;;15.50;4.50;;;9.70;99.90;;;;;;5062172;28;47539;-78
2022/02/23 11:04:07;;;;;;;18.60;4.77;;;9.70;99.90;;;;;;5065872;28;38986;-78
2022/02/23 11:06:34;;;;;;;18.97;4.50;;;9.90;99.90;;;;;;5068787;28;38381;-78
2022/02/23 11:09:01;;;;;;;17.50;3.93;;;10.00;99.90;;;;;;5064633;28;37983;-76
2022/02/23 11:11:28;;;;;;;17.27;4.50;;;10.00;99.90;;;;;;5078295;28;40068;-76
2022/02/23 11:13:56;;;;;;;15.30;3.60;;;10.10;99.90;;;;;;5064954;28;37082;-76
2022/02/23 11:16:24;;;;;;;14.63;3.50;;;10.00;99.90;;;;;;5053951;28;39604;-78
2022/02/23 11:18:52;;;;;;;16.00;3.70;;;10.20;99.90;;;;;;5057107;28;37541;-78
2022/02/23 11:21:19;;;;;;;13.30;3.47;;;10.30;99.90;;;;;;5057826;28;38668;-79
2022/02/23 11:23:49;;;;;;;23.97;4.80;;;10.40;99.90;;;;;;5060759;28;37538;-76
2022/02/23 11:26:19;;;;;;;18.33;3.87;;;10.40;99.90;;;;;;5057698;28;39425;-76
2022/02/23 11:29:11;;;;;;;18.83;4.07;;;10.50;99.90;;;;;;5059273;28;37468;-77
2022/02/23 11:31:38;;;;;;;17.03;4.17;;;10.60;99.90;;;;;;5026024;28;48241;-77
2022/02/23 11:34:05;;;;;;;18.30;4.17;;;10.70;99.90;;;;;;5058454;28;37583;-76
2022/02/23 11:36:39;;;;;;;20.37;4.87;;;10.60;99.90;;;;;;5069378;28;38313;-77
2022/02/23 11:39:07;;;;;;;18.67;4.53;;;10.70;99.90;;;;;;5063090;28;38159;-76
2022/02/23 11:41:36;;;;;;;19.13;5.53;;;10.70;99.90;;;;;;5068678;28;38861;-77
2022/02/23 11:44:08;;;;;;;18.67;4.10;;;10.60;99.90;;;;;;5063997;28;37861;-76
2022/02/23 11:46:56;;;;;;;15.98;3.92;;;10.60;99.90;;;;;;5058937;28;40609;-79
2022/02/23 11:49:25;;;;;;;20.20;4.30;;;10.70;99.90;;;;;;5062147;28;39112;-76
2022/02/23 11:52:11;;;;;;;20.57;4.90;;;10.80;99.90;;;;;;5057490;28;40080;-77
2022/02/23 11:54:51;;;;;;;16.43;5.00;;;10.90;99.90;;;;;;5062967;28;48723;-76
2022/02/23 11:57:39;;;;;;;19.50;4.73;;;11.00;99.90;;;;;;5062256;28;40485;-77
2022/02/23 12:00:11;;;;;;;20.90;4.73;;;11.00;99.90;;;;;;5045891;28;38405;-76
2022/02/23 12:02:38;;;;;;;19.80;4.67;;;11.00;99.90;;;;;;5044084;28;38956;-76
2022/02/23 12:05:25;;;;;;;17.20;3.90;;;11.10;99.90;;;;;;5046177;28;37097;-77
2022/02/23 12:07:54;;;;;;;17.85;5.05;;;11.10;99.90;;;;;;5041417;28;38665;-77
2022/02/23 12:10:29;;;;;;;19.60;4.43;;;11.20;99.90;;;;;;5045856;28;39188;-76
2022/02/23 12:12:56;;;;;;;17.37;4.60;;;11.40;99.90;;;;;;5041045;28;39540;-76
2022/02/23 12:15:35;;;;;;;17.37;4.27;;;11.30;99.90;;;;;;5039961;28;37912;-77
2022/02/23 12:18:12;;;;;;;20.63;4.13;;;11.30;99.90;;;;;;5043411;28;39876;-76
2022/02/23 12:20:38;;;;;;;15.27;4.47;;;11.40;99.90;;;;;;5045852;28;39503;-76
2022/02/23 12:23:08;;;;;;;16.55;4.32;;;11.50;99.90;;;;;;5040500;28;39582;-76
2022/02/23 12:25:55;;;;;;;16.57;3.97;;;11.50;99.90;;;;;;5041831;28;38586;-76
2022/02/23 12:28:23;;;;;;;17.15;3.92;;;11.60;99.90;;;;;;5044391;28;38792;-76
2022/02/23 12:31:19;;;;;;;13.85;4.18;;;11.60;99.90;;;;;;5046801;28;38572;-76
2022/02/23 12:33:49;;;;;;;15.53;3.63;;;11.50;99.90;;;;;;5038908;28;47075;-76
2022/02/23 12:36:25;;;;;;;18.52;4.95;;;11.60;99.90;;;;;;5048392;28;36874;-76
2022/02/23 12:38:51;;;;;;;14.85;3.67;;;11.50;99.90;;;;;;5039831;28;39281;-76
2022/02/23 12:41:22;;;;;;;19.63;4.23;;;11.50;99.90;;;;;;5041359;28;38733;-76
2022/02/23 12:44:15;;;;;;;20.30;4.70;;;11.50;99.90;;;;;;5051266;28;38255;-76
2022/02/23 12:46:46;;;;;;;17.53;4.43;;;11.60;99.90;;;;;;5050210;28;48800;-76
2022/02/23 12:49:13;;;;;;;21.50;4.90;;;11.80;99.90;;;;;;5045568;28;39698;-76
2022/02/23 12:51:42;;;;;;;21.85;3.78;;;11.90;99.90;;;;;;5047629;28;38142;-76